Time;durP1;ratioP1;P1;durP2;ratioP2;P2;SDS_P1;SDS_P2;PMS_P1;PMS_P2;Temp;Humidity;BMP_temperature;BMP_pressure;BME280_temperature;BME280_humidity;BME280_pressure;Samples;Min_cycle;Max_cycle;Signal;HPM_P1;HPM_P2
2023/07/18 00:01:59;;;;;;;854.63;595.03;;;;;;;;;;5025435;28;20438;-58
2023/07/18 00:04:27;;;;;;;854.38;595.05;;;;;;;;;;5026585;28;20435;-58
2023/07/18 00:06:54;;;;;;;848.15;595.25;;;;;;;;;;5030936;28;20442;-58
2023/07/18 00:09:22;;;;;;;847.80;598.30;;;;;;;;;;5026161;28;20415;-58
2023/07/18 00:11:49;;;;;;;851.90;594.97;;;;;;;;;;5025064;28;20582;-58
2023/07/18 00:14:17;;;;;;;852.13;595.07;;;;;;;;;;5036580;28;20979;-58
2023/07/18 00:16:44;;;;;;;853.72;592.67;;;;;;;;;;5030699;28;20471;-58
2023/07/18 00:19:12;;;;;;;840.60;592.83;;;;;;;;;;5013489;28;20448;-58
2023/07/18 00:21:40;;;;;;;840.13;590.25;;;;;;;;;;5031563;28;20504;-58
2023/07/18 00:24:08;;;;;;;835.47;585.70;;;;;;;;;;5033893;28;20519;-65
2023/07/18 00:26:37;;;;;;;835.28;588.95;;;;;;;;;;5026078;28;20434;-66
2023/07/18 00:29:05;;;;;;;836.40;582.35;;;;;;;;;;5017020;28;20438;-65
2023/07/18 00:31:33;;;;;;;840.88;583.08;;;;;;;;;;5019605;28;20917;-65
2023/07/18 00:34:00;;;;;;;838.28;578.13;;;;;;;;;;5027936;28;20832;-65
2023/07/18 00:36:27;;;;;;;839.90;582.08;;;;;;;;;;5029040;28;20450;-66
2023/07/18 00:38:54;;;;;;;837.53;583.03;;;;;;;;;;5025590;28;20439;-65
2023/07/18 00:41:22;;;;;;;838.78;579.40;;;;;;;;;;5026765;28;20742;-66
2023/07/18 00:44:06;;;;;;;841.67;589.07;;;;;;;;;;5024253;28;20433;-66
2023/07/18 00:46:33;;;;;;;841.58;583.88;;;;;;;;;;5021194;28;20433;-65
2023/07/18 00:49:01;;;;;;;840.63;576.40;;;;;;;;;;5027013;28;20497;-66
2023/07/18 00:51:28;;;;;;;839.22;573.92;;;;;;;;;;5026358;28;20950;-66
2023/07/18 00:53:56;;;;;;;839.70;576.10;;;;;;;;;;5020484;28;20917;-66
2023/07/18 00:56:23;;;;;;;833.00;574.40;;;;;;;;;;5028010;28;20435;-66
2023/07/18 00:58:51;;;;;;;830.05;565.95;;;;;;;;;;5021822;28;20733;-66
2023/07/18 01:01:21;;;;;;;832.25;572.08;;;;;;;;;;5024352;28;20437;-66
2023/07/18 01:03:50;;;;;;;829.67;572.42;;;;;;;;;;5026694;28;21012;-66
2023/07/18 01:06:18;;;;;;;822.10;565.72;;;;;;;;;;5026799;28;20841;-66
2023/07/18 01:08:48;;;;;;;824.10;560.20;;;;;;;;;;5029056;28;20487;-66
2023/07/18 01:11:15;;;;;;;821.27;566.67;;;;;;;;;;5028880;28;20872;-66
2023/07/18 01:13:43;;;;;;;820.28;565.10;;;;;;;;;;5021993;28;20464;-66
2023/07/18 01:16:10;;;;;;;816.58;560.20;;;;;;;;;;5026421;28;20499;-66
2023/07/18 01:18:38;;;;;;;816.55;561.63;;;;;;;;;;5029924;28;20472;-66
2023/07/18 01:21:06;;;;;;;820.83;563.80;;;;;;;;;;5035682;28;20457;-66
2023/07/18 01:23:34;;;;;;;821.83;567.88;;;;;;;;;;5032484;28;20518;-66
2023/07/18 01:26:01;;;;;;;814.85;563.60;;;;;;;;;;5026060;28;20484;-66
2023/07/18 01:28:29;;;;;;;813.42;559.65;;;;;;;;;;5030118;28;20431;-66
2023/07/18 01:30:56;;;;;;;807.83;555.42;;;;;;;;;;5024738;28;20439;-66
2023/07/18 01:33:27;;;;;;;818.55;565.70;;;;;;;;;;5031210;28;20540;-66
2023/07/18 01:35:54;;;;;;;815.88;562.53;;;;;;;;;;5024461;28;20436;-66
2023/07/18 01:38:21;;;;;;;811.17;562.15;;;;;;;;;;5033008;28;20476;-66
2023/07/18 01:40:48;;;;;;;803.70;547.85;;;;;;;;;;5027117;28;20492;-66
2023/07/18 01:43:16;;;;;;;809.30;554.28;;;;;;;;;;5025924;28;20464;-66
2023/07/18 01:45:43;;;;;;;799.50;535.97;;;;;;;;;;5026846;28;20426;-66
2023/07/18 01:48:10;;;;;;;789.03;506.25;;;;;;;;;;5031567;28;21114;-66
2023/07/18 01:50:38;;;;;;;786.50;495.98;;;;;;;;;;5028648;28;20436;-66
2023/07/18 01:53:06;;;;;;;797.03;526.92;;;;;;;;;;5026981;28;20432;-66
2023/07/18 01:55:33;;;;;;;792.65;495.20;;;;;;;;;;5028569;28;20440;-66
2023/07/18 01:58:00;;;;;;;793.15;493.30;;;;;;;;;;5033016;28;20547;-66
2023/07/18 02:00:28;;;;;;;798.92;527.55;;;;;;;;;;5026854;28;20443;-66
2023/07/18 02:02:55;;;;;;;799.65;526.33;;;;;;;;;;5023673;28;20842;-66
2023/07/18 02:05:24;;;;;;;801.40;535.67;;;;;;;;;;5027853;28;20426;-66
2023/07/18 02:07:51;;;;;;;804.00;535.92;;;;;;;;;;5023732;28;20470;-66
2023/07/18 02:10:21;;;;;;;803.40;544.72;;;;;;;;;;5033758;28;20431;-66
2023/07/18 02:12:50;;;;;;;797.38;533.92;;;;;;;;;;5029077;28;20877;-66
2023/07/18 02:15:18;;;;;;;795.10;529.80;;;;;;;;;;5022844;28;20523;-67
2023/07/18 02:17:45;;;;;;;790.60;513.88;;;;;;;;;;5029262;28;21046;-66
2023/07/18 02:20:14;;;;;;;800.00;512.37;;;;;;;;;;5013014;28;21170;-66
2023/07/18 02:22:42;;;;;;;780.78;475.98;;;;;;;;;;5029007;28;20933;-66
2023/07/18 02:25:10;;;;;;;781.60;457.63;;;;;;;;;;5031146;28;20446;-66
2023/07/18 02:27:40;;;;;;;777.75;467.48;;;;;;;;;;5027199;28;20424;-66
2023/07/18 02:30:09;;;;;;;764.92;433.50;;;;;;;;;;5031190;28;20437;-67
2023/07/18 02:32:37;;;;;;;764.40;449.53;;;;;;;;;;5013542;28;20533;-66
2023/07/18 02:35:04;;;;;;;763.60;442.60;;;;;;;;;;5023859;28;20432;-66
2023/07/18 02:37:31;;;;;;;772.28;427.30;;;;;;;;;;5031284;28;20934;-67
2023/07/18 02:39:58;;;;;;;766.90;466.88;;;;;;;;;;5030573;28;20837;-66
2023/07/18 02:42:26;;;;;;;764.60;456.73;;;;;;;;;;5012801;28;21034;-66
2023/07/18 02:44:53;;;;;;;764.05;448.02;;;;;;;;;;5012363;28;20419;-66
2023/07/18 02:47:22;;;;;;;766.90;453.58;;;;;;;;;;5028248;28;20436;-66
2023/07/18 02:49:52;;;;;;;755.60;430.23;;;;;;;;;;5030441;28;20907;-66
2023/07/18 02:52:22;;;;;;;757.45;439.88;;;;;;;;;;5030045;28;20448;-67
2023/07/18 02:54:50;;;;;;;757.28;440.98;;;;;;;;;;5023089;28;20499;-66
2023/07/18 02:57:17;;;;;;;755.15;442.65;;;;;;;;;;5029220;28;20420;-66
2023/07/18 02:59:44;;;;;;;754.83;431.77;;;;;;;;;;5015033;28;20438;-66
2023/07/18 03:02:12;;;;;;;753.80;446.58;;;;;;;;;;5030966;28;20960;-66
2023/07/18 03:04:43;;;;;;;753.78;446.90;;;;;;;;;;5029203;28;20431;-66
2023/07/18 03:07:10;;;;;;;757.60;449.93;;;;;;;;;;5028621;28;21023;-66
2023/07/18 03:09:39;;;;;;;760.30;442.45;;;;;;;;;;5030051;28;20490;-66
2023/07/18 03:12:07;;;;;;;751.63;442.40;;;;;;;;;;5012600;28;20427;-66
2023/07/18 03:14:36;;;;;;;749.47;442.50;;;;;;;;;;5029086;28;20480;-66
2023/07/18 03:17:03;;;;;;;750.30;435.70;;;;;;;;;;5030200;28;20917;-67
2023/07/18 03:19:31;;;;;;;753.22;439.50;;;;;;;;;;5028385;28;20435;-66
2023/07/18 03:21:58;;;;;;;753.40;446.77;;;;;;;;;;5026946;28;20924;-66
2023/07/18 03:24:25;;;;;;;745.88;436.67;;;;;;;;;;5026402;28;20431;-66
2023/07/18 03:26:53;;;;;;;750.35;439.65;;;;;;;;;;5040518;28;20477;-66
2023/07/18 03:29:20;;;;;;;748.70;459.35;;;;;;;;;;5033273;28;20513;-67
2023/07/18 03:31:47;;;;;;;750.87;452.77;;;;;;;;;;5026651;28;20842;-66
2023/07/18 03:34:14;;;;;;;747.03;438.30;;;;;;;;;;5008626;28;20434;-66
2023/07/18 03:36:41;;;;;;;737.45;428.02;;;;;;;;;;5027925;28;20474;-66
2023/07/18 03:39:13;;;;;;;741.88;438.13;;;;;;;;;;5032430;28;20824;-67
2023/07/18 03:41:40;;;;;;;746.05;445.30;;;;;;;;;;5024024;28;20436;-66
2023/07/18 03:44:07;;;;;;;742.90;437.17;;;;;;;;;;5033945;28;20429;-66
2023/07/18 03:46:36;;;;;;;743.33;444.63;;;;;;;;;;5031616;28;21029;-67
2023/07/18 03:49:04;;;;;;;749.95;436.98;;;;;;;;;;5025247;28;20426;-66
2023/07/18 03:51:31;;;;;;;753.08;438.70;;;;;;;;;;5030346;28;20530;-67
2023/07/18 03:54:04;;;;;;;759.40;447.60;;;;;;;;;;5028909;28;20976;-67
2023/07/18 03:56:32;;;;;;;755.90;442.02;;;;;;;;;;5035195;28;20447;-67
2023/07/18 03:59:03;;;;;;;749.38;448.42;;;;;;;;;;5031138;28;20481;-67
2023/07/18 04:01:30;;;;;;;750.10;454.08;;;;;;;;;;5031679;28;20913;-67
2023/07/18 04:03:57;;;;;;;758.45;466.88;;;;;;;;;;5028727;28;20438;-67
2023/07/18 04:06:25;;;;;;;746.65;461.98;;;;;;;;;;5032747;28;20464;-66
2023/07/18 04:08:53;;;;;;;746.13;455.63;;;;;;;;;;5026776;28;20435;-66
2023/07/18 04:11:20;;;;;;;740.45;453.98;;;;;;;;;;5003000;28;20519;-67
2023/07/18 04:13:48;;;;;;;738.10;455.92;;;;;;;;;;5025763;28;20430;-67
2023/07/18 04:16:19;;;;;;;741.60;447.20;;;;;;;;;;5025742;28;20442;-67
2023/07/18 04:18:46;;;;;;;747.72;473.30;;;;;;;;;;5029139;28;20505;-68
2023/07/18 04:21:13;;;;;;;774.35;527.97;;;;;;;;;;5027220;28;20496;-67
2023/07/18 04:23:41;;;;;;;775.63;536.77;;;;;;;;;;5027809;28;20466;-67
2023/07/18 04:26:09;;;;;;;776.80;551.53;;;;;;;;;;5026408;28;20429;-67
2023/07/18 04:28:38;;;;;;;776.17;543.77;;;;;;;;;;5031464;28;21990;-67
2023/07/18 04:31:06;;;;;;;779.40;544.17;;;;;;;;;;5029887;28;20454;-67
2023/07/18 04:33:36;;;;;;;780.77;549.73;;;;;;;;;;5026032;28;20431;-67
2023/07/18 04:36:08;;;;;;;787.35;551.58;;;;;;;;;;5011274;28;20500;-67
2023/07/18 04:38:35;;;;;;;761.83;470.83;;;;;;;;;;5030495;28;21220;-67
2023/07/18 04:41:03;;;;;;;763.92;472.65;;;;;;;;;;5025620;28;20439;-67
2023/07/18 04:43:30;;;;;;;765.78;477.08;;;;;;;;;;5030361;28;20425;-67
2023/07/18 04:45:57;;;;;;;798.05;477.00;;;;;;;;;;5027092;28;20506;-66
2023/07/18 04:48:24;;;;;;;747.20;433.53;;;;;;;;;;5026405;28;20522;-66
2023/07/18 04:50:58;;;;;;;763.90;440.48;;;;;;;;;;5024531;28;20947;-66
2023/07/18 04:53:27;;;;;;;812.75;464.75;;;;;;;;;;5026791;28;20435;-67
2023/07/18 04:55:55;;;;;;;834.33;505.85;;;;;;;;;;5022220;28;20432;-67
2023/07/18 04:58:24;;;;;;;834.90;525.25;;;;;;;;;;5024478;28;20462;-67
2023/07/18 05:00:53;;;;;;;849.00;568.28;;;;;;;;;;5021008;28;20493;-69
2023/07/18 05:03:24;;;;;;;851.45;583.53;;;;;;;;;;5023404;28;20524;-67
2023/07/18 05:05:52;;;;;;;884.20;635.92;;;;;;;;;;5027128;28;20429;-68
2023/07/18 05:08:21;;;;;;;889.90;644.75;;;;;;;;;;5025821;28;20434;-67
2023/07/18 05:10:48;;;;;;;905.50;679.28;;;;;;;;;;5023585;28;20950;-67
2023/07/18 05:13:15;;;;;;;909.72;691.80;;;;;;;;;;5024860;28;20438;-67
2023/07/18 05:15:44;;;;;;;901.80;692.58;;;;;;;;;;5005779;28;20534;-67
2023/07/18 05:18:11;;;;;;;933.70;745.40;;;;;;;;;;5023868;28;20440;-66
2023/07/18 05:20:38;;;;;;;941.10;756.47;;;;;;;;;;5025192;28;20442;-66
2023/07/18 05:23:05;;;;;;;941.15;758.05;;;;;;;;;;5026898;28;20784;-66
2023/07/18 05:25:33;;;;;;;945.53;780.88;;;;;;;;;;5028809;28;20436;-66
2023/07/18 05:28:03;;;;;;;949.28;781.58;;;;;;;;;;5023897;28;20438;-66
2023/07/18 05:30:30;;;;;;;938.10;774.55;;;;;;;;;;5030165;28;20518;-66
2023/07/18 05:33:03;;;;;;;903.30;726.47;;;;;;;;;;5035990;28;20466;-66
2023/07/18 05:35:30;;;;;;;931.57;772.53;;;;;;;;;;5033647;28;20483;-66
2023/07/18 05:37:57;;;;;;;920.33;746.25;;;;;;;;;;5031900;28;20434;-66
2023/07/18 05:40:25;;;;;;;931.90;765.03;;;;;;;;;;5026776;28;20461;-66
2023/07/18 05:42:52;;;;;;;929.97;760.03;;;;;;;;;;5029660;28;20516;-66
2023/07/18 05:45:19;;;;;;;940.90;782.30;;;;;;;;;;5011293;28;20427;-67
2023/07/18 05:47:51;;;;;;;940.22;778.95;;;;;;;;;;5024551;28;20466;-65
2023/07/18 05:50:19;;;;;;;943.97;784.97;;;;;;;;;;5026353;28;20909;-66
2023/07/18 05:52:46;;;;;;;950.22;796.85;;;;;;;;;;5026354;28;21119;-66
2023/07/18 05:55:16;;;;;;;948.80;800.70;;;;;;;;;;5026574;28;20431;-66
2023/07/18 05:57:46;;;;;;;937.65;776.35;;;;;;;;;;5020969;28;20473;-66
2023/07/18 06:00:16;;;;;;;929.28;762.70;;;;;;;;;;5026800;28;20459;-66
2023/07/18 06:02:43;;;;;;;925.08;764.47;;;;;;;;;;5027106;28;20526;-66
2023/07/18 06:05:11;;;;;;;931.15;770.67;;;;;;;;;;5024046;28;20549;-67
2023/07/18 06:07:38;;;;;;;935.03;775.10;;;;;;;;;;5035395;28;20435;-67
2023/07/18 06:10:06;;;;;;;929.88;769.90;;;;;;;;;;5026513;28;20435;-66
2023/07/18 06:12:33;;;;;;;932.35;773.83;;;;;;;;;;5024785;28;20432;-65
2023/07/18 06:15:00;;;;;;;933.25;773.33;;;;;;;;;;5035665;28;20454;-66
2023/07/18 06:17:27;;;;;;;932.17;776.70;;;;;;;;;;5028728;28;20455;-66
2023/07/18 06:19:56;;;;;;;943.37;786.50;;;;;;;;;;5035172;28;20528;-64
2023/07/18 06:22:29;;;;;;;951.92;797.67;;;;;;;;;;5029125;28;20453;-65
2023/07/18 06:24:59;;;;;;;956.58;814.35;;;;;;;;;;5032380;28;20447;-66
2023/07/18 06:27:33;;;;;;;972.88;839.00;;;;;;;;;;5030000;28;21090;-66
2023/07/18 06:30:00;;;;;;;974.77;845.83;;;;;;;;;;5025514;28;20431;-66
2023/07/18 06:32:28;;;;;;;977.38;848.67;;;;;;;;;;5027687;28;20832;-65
2023/07/18 06:34:56;;;;;;;972.92;844.53;;;;;;;;;;5027171;28;20434;-64
2023/07/18 06:37:32;;;;;;;934.65;785.05;;;;;;;;;;5029315;28;20980;-62
2023/07/18 06:40:04;;;;;;;930.40;788.70;;;;;;;;;;5029846;28;20442;-63
2023/07/18 06:42:31;;;;;;;934.90;791.20;;;;;;;;;;5025484;28;20427;-63
2023/07/18 06:44:58;;;;;;;943.80;811.78;;;;;;;;;;5025308;28;20571;-64
2023/07/18 06:47:26;;;;;;;940.72;810.40;;;;;;;;;;5026424;28;20431;-63
2023/07/18 06:49:53;;;;;;;955.57;826.23;;;;;;;;;;5023226;28;20519;-65
2023/07/18 06:52:20;;;;;;;945.38;806.72;;;;;;;;;;5029070;28;20445;-63
2023/07/18 06:54:50;;;;;;;952.35;827.65;;;;;;;;;;5025932;28;20553;-64
2023/07/18 06:57:17;;;;;;;954.38;830.85;;;;;;;;;;5026907;28;20489;-63
2023/07/18 06:59:47;;;;;;;959.05;834.05;;;;;;;;;;5027137;28;20441;-62
2023/07/18 07:02:17;;;;;;;952.08;822.70;;;;;;;;;;5028539;28;20436;-63
2023/07/18 07:04:50;;;;;;;940.95;804.50;;;;;;;;;;5037755;28;20913;-62
2023/07/18 07:07:17;;;;;;;954.10;830.17;;;;;;;;;;5023503;28;23452;-63
2023/07/18 07:09:46;;;;;;;950.10;818.85;;;;;;;;;;5003700;28;21622;-62
2023/07/18 07:12:19;;;;;;;938.42;791.72;;;;;;;;;;5022780;28;20438;-64
2023/07/18 07:15:02;;;;;;;936.33;794.70;;;;;;;;;;5018410;28;20446;-63
2023/07/18 07:17:29;;;;;;;943.80;816.77;;;;;;;;;;5025988;28;20458;-63
2023/07/18 07:19:57;;;;;;;934.35;797.33;;;;;;;;;;5024888;28;20520;-63
2023/07/18 07:22:24;;;;;;;950.35;818.10;;;;;;;;;;5026408;28;20432;-63
2023/07/18 07:24:51;;;;;;;952.35;816.63;;;;;;;;;;5019126;28;20496;-63
2023/07/18 07:27:19;;;;;;;962.28;831.33;;;;;;;;;;5024846;28;20425;-62
2023/07/18 07:29:49;;;;;;;962.80;832.95;;;;;;;;;;5028655;28;20490;-62
2023/07/18 07:32:17;;;;;;;966.53;834.88;;;;;;;;;;5025032;28;20427;-63
2023/07/18 07:34:44;;;;;;;920.40;770.97;;;;;;;;;;5026093;28;20927;-63
2023/07/18 07:37:11;;;;;;;931.38;787.28;;;;;;;;;;5023147;28;20439;-64
2023/07/18 07:39:38;;;;;;;951.53;818.45;;;;;;;;;;5026984;28;20514;-63
2023/07/18 07:42:05;;;;;;;940.80;802.80;;;;;;;;;;5030419;28;20578;-63
2023/07/18 07:44:32;;;;;;;966.35;844.35;;;;;;;;;;5024923;28;20510;-63
2023/07/18 07:47:00;;;;;;;930.67;791.78;;;;;;;;;;5023408;28;20785;-63
2023/07/18 07:49:27;;;;;;;932.45;789.47;;;;;;;;;;5023343;28;20488;-63
2023/07/18 07:51:54;;;;;;;937.03;793.83;;;;;;;;;;5009811;28;20934;-62
2023/07/18 07:54:21;;;;;;;924.87;778.37;;;;;;;;;;5027402;28;20543;-63
2023/07/18 07:56:48;;;;;;;942.42;813.58;;;;;;;;;;5024905;28;20994;-63
2023/07/18 07:59:15;;;;;;;949.22;819.47;;;;;;;;;;5022119;28;20485;-63
2023/07/18 08:01:45;;;;;;;951.95;830.58;;;;;;;;;;5021513;28;20849;-62
2023/07/18 08:04:13;;;;;;;953.33;837.55;;;;;;;;;;5019779;28;21186;-63
2023/07/18 08:06:40;;;;;;;956.00;837.85;;;;;;;;;;5025730;28;21114;-63
2023/07/18 08:09:07;;;;;;;955.33;839.15;;;;;;;;;;5026296;28;20996;-62
2023/07/18 08:11:38;;;;;;;959.13;849.33;;;;;;;;;;5020791;28;20441;-62
2023/07/18 08:14:05;;;;;;;964.93;852.27;;;;;;;;;;5019512;28;22427;-62
2023/07/18 08:16:32;;;;;;;965.63;852.70;;;;;;;;;;5004140;28;20440;-62
2023/07/18 08:18:59;;;;;;;950.10;822.80;;;;;;;;;;5025959;28;20433;-62
2023/07/18 08:21:27;;;;;;;956.83;849.65;;;;;;;;;;5023265;28;20438;-62
2023/07/18 08:23:54;;;;;;;977.55;869.42;;;;;;;;;;5024103;28;20492;-62
2023/07/18 08:26:22;;;;;;;970.25;862.95;;;;;;;;;;5023906;28;20434;-63
2023/07/18 08:28:49;;;;;;;962.22;855.83;;;;;;;;;;5027415;28;20485;-63
2023/07/18 08:31:16;;;;;;;956.83;844.80;;;;;;;;;;5024848;28;20783;-63
2023/07/18 08:33:45;;;;;;;945.25;817.65;;;;;;;;;;5012211;28;21210;-62
2023/07/18 08:36:12;;;;;;;945.40;816.10;;;;;;;;;;5026989;28;20494;-63
2023/07/18 08:38:43;;;;;;;958.60;835.15;;;;;;;;;;5021814;28;21053;-64
2023/07/18 08:41:10;;;;;;;967.88;853.00;;;;;;;;;;5021824;28;20431;-64
2023/07/18 08:43:40;;;;;;;984.15;875.40;;;;;;;;;;5028451;28;20480;-63
2023/07/18 08:46:08;;;;;;;971.03;861.63;;;;;;;;;;5028287;28;20438;-63
2023/07/18 08:48:37;;;;;;;977.33;869.28;;;;;;;;;;5027749;28;20427;-63
2023/07/18 08:51:11;;;;;;;978.65;871.15;;;;;;;;;;5027668;28;20501;-63
2023/07/18 08:53:44;;;;;;;967.83;860.50;;;;;;;;;;5027556;28;20470;-63
2023/07/18 08:56:13;;;;;;;979.83;871.90;;;;;;;;;;5027423;28;20431;-63
2023/07/18 08:58:40;;;;;;;993.00;884.70;;;;;;;;;;5020565;28;20453;-62
2023/07/18 09:01:08;;;;;;;979.65;871.97;;;;;;;;;;5027236;28;20909;-63
2023/07/18 09:03:35;;;;;;;983.03;874.75;;;;;;;;;;5028847;28;20430;-62
2023/07/18 09:06:03;;;;;;;999.63;890.30;;;;;;;;;;5021737;28;20448;-62
2023/07/18 09:08:45;;;;;;;1005.72;896.47;;;;;;;;;;5022193;28;20483;-62
2023/07/18 09:11:14;;;;;;;996.83;887.55;;;;;;;;;;5008302;28;20497;-62
2023/07/18 09:13:43;;;;;;;999.97;891.58;;;;;;;;;;5024624;28;20434;-65
2023/07/18 09:16:13;;;;;;;978.88;871.38;;;;;;;;;;5026910;28;20438;-63
2023/07/18 09:18:50;;;;;;;981.33;873.60;;;;;;;;;;5026709;28;20434;-63
2023/07/18 09:21:18;;;;;;;953.95;844.67;;;;;;;;;;5010241;28;20450;-64
2023/07/18 09:23:46;;;;;;;1011.47;901.53;;;;;;;;;;5027259;28;21014;-63
2023/07/18 09:26:14;;;;;;;1008.30;899.45;;;;;;;;;;5024993;28;20440;-64
2023/07/18 09:28:42;;;;;;;1012.30;903.40;;;;;;;;;;5010358;28;20481;-64
2023/07/18 09:31:17;;;;;;;995.40;887.38;;;;;;;;;;5024117;28;20430;-64
2023/07/18 09:33:48;;;;;;;1043.10;932.35;;;;;;;;;;5024134;28;20435;-63
2023/07/18 09:36:18;;;;;;;1025.40;915.75;;;;;;;;;;5026428;28;20522;-63
2023/07/18 09:38:48;;;;;;;1009.95;900.97;;;;;;;;;;5008549;28;21153;-64
2023/07/18 09:41:19;;;;;;;972.47;865.92;;;;;;;;;;5027252;28;20442;-64
2023/07/18 09:43:49;;;;;;;965.45;858.70;;;;;;;;;;5020882;28;20439;-63
2023/07/18 09:46:17;;;;;;;966.25;859.58;;;;;;;;;;5027982;28;20434;-64
2023/07/18 09:48:45;;;;;;;1004.70;895.83;;;;;;;;;;5028658;28;20461;-63
2023/07/18 09:51:20;;;;;;;1025.90;916.05;;;;;;;;;;5031154;28;20431;-64
2023/07/18 09:53:48;;;;;;;1048.18;936.30;;;;;;;;;;4996798;28;20569;-65
2023/07/18 09:56:16;;;;;;;1020.60;911.13;;;;;;;;;;5024458;28;20941;-63
2023/07/18 09:58:46;;;;;;;1046.53;935.17;;;;;;;;;;5026614;28;20447;-64
2023/07/18 10:01:19;;;;;;;1028.00;917.47;;;;;;;;;;5022510;28;20464;-63
2023/07/18 10:03:52;;;;;;;1042.60;931.47;;;;;;;;;;5024354;28;20438;-64
2023/07/18 10:06:21;;;;;;;1053.50;941.35;;;;;;;;;;5027575;28;20431;-64
2023/07/18 10:08:48;;;;;;;1062.20;950.00;;;;;;;;;;5027303;28;20877;-64
2023/07/18 10:11:15;;;;;;;1070.80;957.92;;;;;;;;;;5028187;28;20502;-64
2023/07/18 10:14:02;;;;;;;1066.15;954.03;;;;;;;;;;5026135;28;20431;-66
2023/07/18 10:16:32;;;;;;;1077.60;965.00;;;;;;;;;;5029687;28;20458;-65
2023/07/18 10:18:59;;;;;;;1076.07;963.55;;;;;;;;;;5028500;28;20437;-64
2023/07/18 10:21:31;;;;;;;1076.90;964.35;;;;;;;;;;5030840;28;20445;-66
2023/07/18 10:24:23;;;;;;;1054.57;943.63;;;;;;;;;;5033275;28;20522;-65
2023/07/18 10:26:59;;;;;;;1042.40;932.00;;;;;;;;;;5027142;28;20442;-65
2023/07/18 10:29:31;;;;;;;1028.00;917.83;;;;;;;;;;5028666;28;21073;-66
2023/07/18 10:32:02;;;;;;;1016.55;907.20;;;;;;;;;;5025774;28;20804;-64
2023/07/18 10:34:37;;;;;;;1000.35;891.78;;;;;;;;;;5013707;28;20438;-63
2023/07/18 10:37:10;;;;;;;1021.78;911.55;;;;;;;;;;5029241;28;20451;-64
2023/07/18 10:39:42;;;;;;;995.33;886.55;;;;;;;;;;5026399;28;20441;-65
2023/07/18 10:42:19;;;;;;;985.37;877.43;;;;;;;;;;5029460;28;20430;-63
2023/07/18 10:44:49;;;;;;;978.83;870.55;;;;;;;;;;5016104;28;20439;-64
2023/07/18 10:47:17;;;;;;;995.83;886.87;;;;;;;;;;5013514;28;20441;-65
2023/07/18 10:49:50;;;;;;;1003.45;894.22;;;;;;;;;;5024077;28;20453;-66
2023/07/18 10:52:21;;;;;;;1003.30;894.22;;;;;;;;;;5028238;28;20514;-65
2023/07/18 10:54:51;;;;;;;994.58;885.78;;;;;;;;;;5029822;28;20438;-65
2023/07/18 10:57:23;;;;;;;1012.63;902.95;;;;;;;;;;5025815;28;20534;-64
2023/07/18 10:59:51;;;;;;;1011.05;901.47;;;;;;;;;;5005137;28;20466;-65
2023/07/18 11:02:19;;;;;;;998.28;889.17;;;;;;;;;;5029078;28;20805;-65
2023/07/18 11:04:47;;;;;;;1012.55;903.35;;;;;;;;;;5018095;28;20433;-66
2023/07/18 11:07:14;;;;;;;989.92;881.00;;;;;;;;;;5029955;28;20435;-65
2023/07/18 11:09:42;;;;;;;1004.90;895.38;;;;;;;;;;5027947;28;20437;-64
2023/07/18 11:12:17;;;;;;;1001.45;892.05;;;;;;;;;;5029265;28;20502;-65
2023/07/18 11:14:45;;;;;;;998.90;889.63;;;;;;;;;;5011754;28;20948;-65
2023/07/18 11:17:19;;;;;;;1004.10;894.55;;;;;;;;;;5028547;28;20435;-63
2023/07/18 11:19:47;;;;;;;1002.27;892.77;;;;;;;;;;5027155;28;20441;-64
2023/07/18 11:22:15;;;;;;;1004.10;894.35;;;;;;;;;;5024533;28;20521;-64
2023/07/18 11:24:43;;;;;;;1012.10;902.30;;;;;;;;;;5029447;28;20865;-65
2023/07/18 11:27:14;;;;;;;1029.88;919.53;;;;;;;;;;5030763;28;20781;-63
2023/07/18 11:29:49;;;;;;;1014.00;904.22;;;;;;;;;;5029793;28;20423;-64
2023/07/18 11:32:38;;;;;;;1023.80;913.92;;;;;;;;;;5028044;28;20492;-63
2023/07/18 11:35:07;;;;;;;1047.50;936.45;;;;;;;;;;5028083;28;20449;-64
2023/07/18 11:37:38;;;;;;;1015.40;906.40;;;;;;;;;;5011503;28;20480;-64
2023/07/18 11:40:09;;;;;;;1001.97;893.17;;;;;;;;;;5028192;28;20435;-64
2023/07/18 11:43:02;;;;;;;983.70;876.17;;;;;;;;;;5027591;28;20439;-64
2023/07/18 11:45:35;;;;;;;983.63;876.00;;;;;;;;;;5028292;28;20487;-63
2023/07/18 11:48:04;;;;;;;1010.90;900.53;;;;;;;;;;5027219;28;20489;-64
2023/07/18 11:50:32;;;;;;;1009.60;899.28;;;;;;;;;;5026880;28;20510;-65
2023/07/18 11:53:03;;;;;;;966.50;859.25;;;;;;;;;;5027857;28;20466;-63
2023/07/18 11:55:31;;;;;;;979.38;871.55;;;;;;;;;;5028510;28;20797;-63
2023/07/18 11:58:07;;;;;;;986.17;877.55;;;;;;;;;;5029356;28;20433;-65
2023/07/18 12:00:38;;;;;;;1002.33;892.35;;;;;;;;;;5007659;28;20432;-65
2023/07/18 12:03:07;;;;;;;991.30;881.88;;;;;;;;;;5024543;28;20522;-64
2023/07/18 12:05:35;;;;;;;975.92;866.58;;;;;;;;;;5028707;28;20435;-65
2023/07/18 12:08:02;;;;;;;1005.00;894.40;;;;;;;;;;5029822;28;20506;-65
2023/07/18 12:10:33;;;;;;;1013.50;902.28;;;;;;;;;;5009322;28;20454;-63
2023/07/18 12:13:00;;;;;;;1022.13;911.08;;;;;;;;;;5029056;28;20454;-65
2023/07/18 12:15:27;;;;;;;1005.92;895.55;;;;;;;;;;5028915;28;20829;-64
2023/07/18 12:17:54;;;;;;;1012.72;902.40;;;;;;;;;;5027468;28;20465;-65
2023/07/18 12:20:22;;;;;;;980.35;862.97;;;;;;;;;;5010725;28;20435;-64
2023/07/18 12:22:49;;;;;;;984.38;870.05;;;;;;;;;;5028297;28;20434;-65
2023/07/18 12:25:18;;;;;;;986.70;874.20;;;;;;;;;;5028353;28;20489;-64
2023/07/18 12:27:45;;;;;;;996.08;885.70;;;;;;;;;;5028902;28;20453;-64
2023/07/18 12:30:16;;;;;;;1007.58;896.47;;;;;;;;;;5013568;28;20481;-65
2023/07/18 12:32:44;;;;;;;1022.85;910.90;;;;;;;;;;5010559;28;20438;-63
2023/07/18 12:35:12;;;;;;;1011.95;900.63;;;;;;;;;;5026633;28;20431;-64
2023/07/18 12:37:39;;;;;;;1004.90;894.17;;;;;;;;;;5026251;28;21023;-66
2023/07/18 12:40:07;;;;;;;1007.07;896.63;;;;;;;;;;5028517;28;20535;-65
2023/07/18 12:42:37;;;;;;;967.13;856.92;;;;;;;;;;5020555;28;20434;-64
2023/07/18 12:45:05;;;;;;;971.13;862.80;;;;;;;;;;5026739;28;20858;-64
2023/07/18 12:47:32;;;;;;;987.57;878.13;;;;;;;;;;5021994;28;20437;-65
2023/07/18 12:49:59;;;;;;;1019.87;908.57;;;;;;;;;;5007063;28;20428;-64
2023/07/18 12:52:26;;;;;;;978.95;870.45;;;;;;;;;;5024799;28;20432;-65
2023/07/18 12:54:53;;;;;;;988.42;879.20;;;;;;;;;;5026111;28;20501;-64
2023/07/18 12:57:21;;;;;;;974.67;866.63;;;;;;;;;;5025275;28;20471;-64
2023/07/18 12:59:48;;;;;;;1021.13;910.13;;;;;;;;;;5031248;28;20468;-65
2023/07/18 13:02:18;;;;;;;988.58;879.63;;;;;;;;;;5021364;28;20978;-65
2023/07/18 13:04:46;;;;;;;977.40;869.03;;;;;;;;;;5027388;28;20489;-65
2023/07/18 13:07:16;;;;;;;954.00;841.30;;;;;;;;;;5025680;28;20432;-64
2023/07/18 13:09:44;;;;;;;956.92;839.35;;;;;;;;;;5018278;28;20490;-65
2023/07/18 13:12:11;;;;;;;966.92;849.17;;;;;;;;;;5008351;28;20455;-64
2023/07/18 13:14:39;;;;;;;973.50;865.53;;;;;;;;;;5012121;28;20426;-64
2023/07/18 13:17:06;;;;;;;970.25;862.55;;;;;;;;;;5035476;28;20953;-64
2023/07/18 13:19:34;;;;;;;971.80;858.67;;;;;;;;;;5019001;28;20471;-65
2023/07/18 13:22:01;;;;;;;985.17;876.22;;;;;;;;;;5029157;28;20430;-64
2023/07/18 13:24:28;;;;;;;968.40;856.13;;;;;;;;;;5035925;28;20517;-65
2023/07/18 13:26:55;;;;;;;964.20;847.70;;;;;;;;;;5034597;28;20827;-65
2023/07/18 13:29:22;;;;;;;990.90;881.20;;;;;;;;;;5030694;28;20961;-65
2023/07/18 13:31:50;;;;;;;974.23;857.63;;;;;;;;;;5020062;28;20836;-64
2023/07/18 13:34:19;;;;;;;967.95;847.67;;;;;;;;;;5026260;28;20522;-64
2023/07/18 13:36:47;;;;;;;964.88;844.47;;;;;;;;;;5018327;28;20436;-64
2023/07/18 13:39:14;;;;;;;967.20;847.35;;;;;;;;;;5026827;28;20944;-65
2023/07/18 13:41:41;;;;;;;970.08;853.85;;;;;;;;;;5028107;28;20515;-65
2023/07/18 13:44:08;;;;;;;976.78;862.28;;;;;;;;;;5025949;28;20544;-65
2023/07/18 13:46:35;;;;;;;975.17;865.40;;;;;;;;;;5027074;28;21238;-66
2023/07/18 13:49:04;;;;;;;978.30;869.40;;;;;;;;;;5030444;28;20992;-64
2023/07/18 13:51:31;;;;;;;983.53;874.83;;;;;;;;;;5028191;28;20478;-65
2023/07/18 13:53:59;;;;;;;975.75;866.60;;;;;;;;;;5025432;28;20544;-66
2023/07/18 13:56:26;;;;;;;965.63;850.38;;;;;;;;;;5030671;28;20426;-66
2023/07/18 13:58:54;;;;;;;962.03;847.95;;;;;;;;;;5032186;28;20525;-66
2023/07/18 14:01:21;;;;;;;965.43;857.60;;;;;;;;;;5029496;28;20462;-65